createdAt,value
2019-04-01T00:00:04.224Z,1
2019-04-01T00:01:02.052Z,0
2019-04-01T00:02:02.273Z,0
2019-04-01T00:03:01.413Z,0
2019-04-01T00:04:01.617Z,0
2019-04-01T00:05:01.792Z,0
2019-04-01T00:06:02.051Z,0
2019-04-01T00:07:02.318Z,1
2019-04-01T00:08:01.477Z,0
2019-04-01T00:09:01.705Z,1
2019-04-01T00:10:01.943Z,0
2019-04-01T00:11:02.133Z,0
2019-04-01T00:12:02.409Z,0
2019-04-01T00:13:01.648Z,0
2019-04-01T00:14:01.860Z,0
2019-04-01T00:15:02.123Z,0
2019-04-01T00:16:02.347Z,0
2019-04-01T00:17:01.606Z,1
2019-04-01T00:18:01.825Z,1
2019-04-01T00:19:03.419Z,0
2019-04-01T00:20:02.446Z,0
2019-04-01T00:21:01.635Z,0
2019-04-01T00:22:01.932Z,0
2019-04-01T00:23:02.425Z,0
2019-04-01T00:24:02.399Z,1
2019-04-01T00:25:01.655Z,0
2019-04-01T00:26:02.258Z,0
2019-04-01T00:27:01.606Z,0
2019-04-01T00:28:01.694Z,0
2019-04-01T00:29:01.924Z,0
2019-04-01T00:30:02.132Z,0
2019-04-01T00:31:02.331Z,0
2019-04-01T00:32:01.619Z,0
2019-04-01T00:33:01.974Z,0
2019-04-01T00:34:02.269Z,0
2019-04-01T00:35:02.425Z,0
2019-04-01T00:36:01.692Z,0
2019-04-01T00:37:01.940Z,0
2019-04-01T00:38:02.160Z,0
2019-04-01T00:39:01.404Z,0
2019-04-01T00:40:01.705Z,0
2019-04-01T00:41:01.887Z,1
2019-04-01T00:42:02.126Z,0
2019-04-01T00:43:02.337Z,0
2019-04-01T00:44:01.494Z,0
2019-04-01T00:45:01.747Z,0
2019-04-01T00:46:01.942Z,0
2019-04-01T00:47:01.957Z,0
2019-04-01T00:48:02.165Z,0
2019-04-01T00:49:01.463Z,0
2019-04-01T00:50:01.772Z,0
2019-04-01T00:51:01.974Z,0
2019-04-01T00:52:02.051Z,0
2019-04-01T00:53:02.186Z,0
2019-04-01T00:54:02.401Z,0
2019-04-01T00:55:01.655Z,0
2019-04-01T00:56:01.894Z,0
2019-04-01T00:57:02.133Z,0
2019-04-01T00:58:02.417Z,0
2019-04-01T00:59:01.640Z,0
2019-04-01T01:00:04.483Z,0
2019-04-01T01:01:02.296Z,0
2019-04-01T01:02:02.191Z,0
2019-04-01T01:03:02.371Z,0
2019-04-01T01:04:01.629Z,0
2019-04-01T01:05:01.910Z,0
2019-04-01T01:06:02.125Z,0
2019-04-01T01:07:02.333Z,0
2019-04-01T01:08:01.576Z,0
2019-04-01T01:09:01.701Z,0
2019-04-01T01:10:02.016Z,0
2019-04-01T01:11:02.288Z,0
2019-04-01T01:12:01.449Z,0
2019-04-01T01:13:01.652Z,0
2019-04-01T01:14:01.919Z,0
2019-04-01T01:15:02.123Z,0
2019-04-01T01:16:02.382Z,0
2019-04-01T01:17:01.512Z,0
2019-04-01T01:18:01.808Z,0
2019-04-01T01:19:02.018Z,0
2019-04-01T01:20:02.296Z,1
2019-04-01T01:21:01.543Z,0
2019-04-01T01:22:01.704Z,0
2019-04-01T01:23:01.931Z,0
2019-04-01T01:24:02.166Z,0
2019-04-01T01:25:01.463Z,0
2019-04-01T01:26:01.765Z,0
2019-04-01T01:27:02.409Z,0
2019-04-01T01:28:01.577Z,0
2019-04-01T01:29:01.939Z,0
2019-04-01T01:30:02.129Z,0
2019-04-01T01:31:02.435Z,0
2019-04-01T01:32:01.565Z,0
2019-04-01T01:33:01.748Z,0
2019-04-01T01:34:02.015Z,0
2019-04-01T01:35:02.263Z,0
2019-04-01T01:36:01.478Z,0
2019-04-01T01:37:01.765Z,0
2019-04-01T01:38:01.894Z,0
2019-04-01T01:39:02.075Z,0
2019-04-01T01:40:02.332Z,0
2019-04-01T01:41:01.541Z,0
2019-04-01T01:42:01.796Z,0
2019-04-01T01:43:01.978Z,0
2019-04-01T01:44:02.141Z,0
2019-04-01T01:45:02.434Z,0
2019-04-01T01:46:01.559Z,0
2019-04-01T01:47:01.769Z,0
2019-04-01T01:48:02.036Z,0
2019-04-01T01:49:02.230Z,1
2019-04-01T01:50:01.455Z,0
2019-04-01T01:51:01.624Z,0
2019-04-01T01:52:01.892Z,0
2019-04-01T01:53:02.129Z,0
2019-04-01T01:54:02.390Z,0
2019-04-01T01:55:01.534Z,0
2019-04-01T01:56:01.759Z,0
2019-04-01T01:57:01.940Z,0
2019-04-01T01:58:02.171Z,0
2019-04-01T01:59:02.357Z,0
2019-04-01T02:00:04.798Z,0
2019-04-01T02:01:01.551Z,0
2019-04-01T02:02:01.967Z,0
2019-04-01T02:03:02.300Z,0
2019-04-01T02:04:01.429Z,0
2019-04-01T02:05:01.686Z,0
2019-04-01T02:06:01.929Z,0
2019-04-01T02:07:02.132Z,1
2019-04-01T02:08:02.401Z,0
2019-04-01T02:09:01.652Z,0
2019-04-01T02:10:01.990Z,0
2019-04-01T02:11:02.064Z,0
2019-04-01T02:12:02.250Z,0
2019-04-01T02:13:01.437Z,0
2019-04-01T02:14:01.705Z,0
2019-04-01T02:15:01.945Z,0
2019-04-01T02:16:02.186Z,0
2019-04-01T02:17:01.417Z,0
2019-04-01T02:18:01.660Z,1
2019-04-01T02:19:01.942Z,0
2019-04-01T02:20:02.202Z,0
2019-04-01T02:21:02.359Z,0
2019-04-01T02:22:01.680Z,0
2019-04-01T02:23:01.782Z,0
2019-04-01T02:24:02.108Z,0
2019-04-01T02:25:02.345Z,0
2019-04-01T02:26:01.493Z,0
2019-04-01T02:27:01.801Z,0
2019-04-01T02:28:01.961Z,0
2019-04-01T02:29:02.249Z,0
2019-04-01T02:30:02.421Z,0
2019-04-01T02:31:01.610Z,0
2019-04-01T02:32:01.871Z,0
2019-04-01T02:33:02.119Z,1
2019-04-01T02:34:02.333Z,0
2019-04-01T02:35:01.959Z,0
2019-04-01T02:36:01.899Z,0
2019-04-01T02:37:02.109Z,1
2019-04-01T02:38:02.373Z,0
2019-04-01T02:39:01.531Z,1
2019-04-01T02:40:01.721Z,0
2019-04-01T02:41:01.916Z,0
2019-04-01T02:42:02.175Z,0
2019-04-01T02:43:02.445Z,0
2019-04-01T02:44:01.586Z,0
2019-04-01T02:45:01.900Z,0
2019-04-01T02:46:02.143Z,0
2019-04-01T02:47:02.412Z,0
2019-04-01T02:48:01.662Z,0
2019-04-01T02:49:01.815Z,0
2019-04-01T02:50:02.110Z,0
2019-04-01T02:51:02.316Z,0
2019-04-01T02:52:01.568Z,0
2019-04-01T02:53:01.831Z,0
2019-04-01T02:54:01.921Z,0
2019-04-01T02:55:06.428Z,0
2019-04-01T02:56:02.425Z,0
2019-04-01T02:57:01.618Z,0
2019-04-01T02:58:01.854Z,0
2019-04-01T02:59:02.132Z,0
2019-04-01T03:00:02.394Z,0
2019-04-01T03:01:01.698Z,0
2019-04-01T03:02:01.828Z,0
2019-04-01T03:03:02.112Z,0
2019-04-01T03:04:02.397Z,0
2019-04-01T03:05:01.661Z,0
2019-04-01T03:06:01.899Z,0
2019-04-01T03:07:02.057Z,0
2019-04-01T03:08:02.326Z,0
2019-04-01T03:09:01.480Z,0
2019-04-01T03:10:01.718Z,0
2019-04-01T03:11:01.936Z,0
2019-04-01T03:12:02.145Z,0
2019-04-01T03:13:02.441Z,0
2019-04-01T03:14:01.656Z,0
2019-04-01T03:15:01.912Z,1
2019-04-01T03:16:02.096Z,0
2019-04-01T03:17:02.313Z,0
2019-04-01T03:18:01.659Z,0
2019-04-01T03:19:01.933Z,0
2019-04-01T03:20:02.194Z,1
2019-04-01T03:21:02.341Z,0
2019-04-01T03:22:01.567Z,0
2019-04-01T03:23:01.795Z,0
2019-04-01T03:24:02.042Z,0
2019-04-01T03:25:02.288Z,0
2019-04-01T03:26:01.474Z,0
2019-04-01T03:27:01.657Z,0
2019-04-01T03:28:01.925Z,0
2019-04-01T03:29:02.126Z,0
2019-04-01T03:30:02.466Z,0
2019-04-01T03:31:01.648Z,0
2019-04-01T03:32:01.828Z,0
2019-04-01T03:33:02.089Z,0
2019-04-01T03:34:02.239Z,0
2019-04-01T03:35:02.024Z,0
2019-04-01T03:36:01.777Z,0
2019-04-01T03:37:02.024Z,0
2019-04-01T03:38:02.159Z,0
2019-04-01T03:39:02.405Z,0
2019-04-01T03:40:01.647Z,0
2019-04-01T03:41:01.877Z,0
2019-04-01T03:42:02.128Z,0
2019-04-01T03:43:02.357Z,0
2019-04-01T03:44:01.572Z,0
2019-04-01T03:45:01.861Z,0
2019-04-01T03:46:02.005Z,0
2019-04-01T03:47:02.330Z,0
2019-04-01T03:48:01.467Z,1
2019-04-01T03:49:01.734Z,0
2019-04-01T03:50:01.922Z,0
2019-04-01T03:51:02.248Z,0
2019-04-01T03:52:02.290Z,0
2019-04-01T03:53:01.509Z,0
2019-04-01T03:54:01.729Z,0
2019-04-01T03:55:01.983Z,0
2019-04-01T03:56:02.260Z,0
2019-04-01T03:57:01.550Z,0
2019-04-01T03:58:01.687Z,0
2019-04-01T03:59:01.876Z,1
2019-04-01T04:00:04.462Z,0
2019-04-01T04:01:02.353Z,0
2019-04-01T04:02:01.634Z,0
2019-04-01T04:03:01.794Z,0
2019-04-01T04:04:02.019Z,0
2019-04-01T04:05:02.232Z,0
2019-04-01T04:06:02.389Z,0
2019-04-01T04:07:01.690Z,0
2019-04-01T04:08:01.859Z,0
2019-04-01T04:09:02.553Z,1
2019-04-01T04:10:02.429Z,0
2019-04-01T04:11:01.682Z,0
2019-04-01T04:12:01.976Z,0
2019-04-01T04:13:02.130Z,0
2019-04-01T04:14:02.336Z,1
2019-04-01T04:15:01.575Z,0
2019-04-01T04:16:01.733Z,0
2019-04-01T04:17:01.971Z,0
2019-04-01T04:18:02.194Z,0
2019-04-01T04:19:01.481Z,0
2019-04-01T04:20:01.814Z,0
2019-04-01T04:21:02.024Z,0
2019-04-01T04:22:02.189Z,0
2019-04-01T04:23:01.439Z,0
2019-04-01T04:24:01.600Z,0
2019-04-01T04:25:02.039Z,0
2019-04-01T04:26:02.106Z,0
2019-04-01T04:27:02.367Z,0
2019-04-01T04:28:01.618Z,0
2019-04-01T04:29:01.853Z,0
2019-04-01T04:30:01.993Z,0
2019-04-01T04:31:02.176Z,0
2019-04-01T04:32:02.342Z,0
2019-04-01T04:33:01.547Z,0
2019-04-01T04:34:01.801Z,0
2019-04-01T04:35:06.606Z,0
2019-04-01T04:36:02.269Z,0
2019-04-01T04:37:01.571Z,0
2019-04-01T04:38:01.742Z,0
2019-04-01T04:39:01.962Z,0
2019-04-01T04:40:02.209Z,0
2019-04-01T04:41:01.471Z,0
2019-04-01T04:42:01.719Z,0
2019-04-01T04:43:01.862Z,0
2019-04-01T04:44:02.113Z,1
2019-04-01T04:45:02.357Z,0
2019-04-01T04:46:01.543Z,0
2019-04-01T04:47:01.888Z,0
2019-04-01T04:48:01.964Z,0
2019-04-01T04:49:02.310Z,0
2019-04-01T04:50:01.819Z,0
2019-04-01T04:51:01.814Z,0
2019-04-01T04:52:04.608Z,0
2019-04-01T04:53:02.214Z,0
2019-04-01T04:54:01.569Z,0
2019-04-01T04:55:01.850Z,0
2019-04-01T04:56:02.016Z,0
2019-04-01T04:57:02.232Z,0
2019-04-01T04:58:01.418Z,0
2019-04-01T04:59:01.653Z,0
2019-04-01T05:00:03.296Z,0
2019-04-01T05:01:02.125Z,0
2019-04-01T05:02:02.360Z,0
2019-04-01T05:03:01.542Z,0
2019-04-01T05:04:01.804Z,0
2019-04-01T05:05:02.086Z,0
2019-04-01T05:06:02.216Z,0
2019-04-01T05:07:01.467Z,1
2019-04-01T05:08:01.675Z,0
2019-04-01T05:09:01.909Z,0
2019-04-01T05:10:01.425Z,0
2019-04-01T05:11:01.754Z,1
2019-04-01T05:12:01.876Z,0
2019-04-01T05:13:02.029Z,0
2019-04-01T05:14:02.205Z,0
2019-04-01T05:15:01.544Z,0
2019-04-01T05:16:01.681Z,0
2019-04-01T05:17:01.923Z,0
2019-04-01T05:18:02.117Z,0
2019-04-01T05:19:02.355Z,0
2019-04-01T05:20:01.520Z,0
2019-04-01T05:21:01.705Z,0
2019-04-01T05:22:01.892Z,0
2019-04-01T05:23:02.060Z,0
2019-04-01T05:24:02.279Z,0
2019-04-01T05:25:01.483Z,0
2019-04-01T05:26:01.725Z,0
2019-04-01T05:27:01.878Z,0
2019-04-01T05:28:02.100Z,0
2019-04-01T05:29:02.339Z,0
2019-04-01T05:30:01.575Z,0
2019-04-01T05:31:01.839Z,0
2019-04-01T05:32:02.135Z,0
2019-04-01T05:33:02.298Z,0
2019-04-01T05:34:01.525Z,0
2019-04-01T05:35:01.852Z,0
2019-04-01T05:36:02.003Z,0
2019-04-01T05:37:02.283Z,0
2019-04-01T05:38:01.431Z,0
2019-04-01T05:39:01.628Z,0
2019-04-01T05:40:02.037Z,0
2019-04-01T05:41:02.284Z,0
2019-04-01T05:42:01.490Z,0
2019-04-01T05:43:01.632Z,0
2019-04-01T05:44:02.376Z,0
2019-04-01T05:45:02.146Z,1
2019-04-01T05:46:02.264Z,1
2019-04-01T05:47:01.489Z,0
2019-04-01T05:48:01.786Z,0
2019-04-01T05:49:02.024Z,0
2019-04-01T05:50:02.304Z,0
2019-04-01T05:51:01.456Z,0
2019-04-01T05:52:01.636Z,0
2019-04-01T05:53:01.964Z,0
2019-04-01T05:54:02.196Z,0
2019-04-01T05:55:02.415Z,0
2019-04-01T05:56:01.697Z,0
2019-04-01T05:57:01.884Z,1
2019-04-01T05:58:02.154Z,0
2019-04-01T05:59:02.342Z,0
2019-04-01T06:00:04.049Z,0
2019-04-01T06:01:01.957Z,0
2019-04-01T06:02:02.162Z,0
2019-04-01T06:03:02.327Z,0
2019-04-01T06:04:01.496Z,0
2019-04-01T06:05:01.740Z,0
2019-04-01T06:06:02.038Z,0
2019-04-01T06:07:02.262Z,0
2019-04-01T06:08:01.519Z,0
2019-04-01T06:09:01.705Z,0
2019-04-01T06:10:01.998Z,0
2019-04-01T06:11:02.115Z,0
2019-04-01T06:12:02.339Z,0
2019-04-01T06:13:01.625Z,0
2019-04-01T06:14:01.898Z,0
2019-04-01T06:15:02.239Z,1
2019-04-01T06:16:02.375Z,0
2019-04-01T06:17:01.567Z,0
2019-04-01T06:18:01.847Z,0
2019-04-01T06:19:02.104Z,0
2019-04-01T06:20:02.229Z,0
2019-04-01T06:21:01.464Z,1
2019-04-01T06:22:01.655Z,1
2019-04-01T06:23:01.810Z,0
2019-04-01T06:24:02.076Z,1
2019-04-01T06:25:02.373Z,0
2019-04-01T06:26:01.634Z,0
2019-04-01T06:27:02.124Z,0
2019-04-01T06:28:02.056Z,0
2019-04-01T06:29:02.265Z,1
2019-04-01T06:30:01.554Z,0
2019-04-01T06:31:01.779Z,0
2019-04-01T06:32:01.989Z,1
2019-04-01T06:33:02.233Z,0
2019-04-01T06:34:01.478Z,1
2019-04-01T06:35:01.752Z,0
2019-04-01T06:36:01.903Z,0
2019-04-01T06:37:02.147Z,1
2019-04-01T06:38:02.258Z,0
2019-04-01T06:39:01.514Z,1
2019-04-01T06:40:01.835Z,0
2019-04-01T06:41:01.892Z,1
2019-04-01T06:42:02.154Z,0
2019-04-01T06:43:01.428Z,1
2019-04-01T06:44:01.722Z,0
2019-04-01T06:45:01.991Z,0
2019-04-01T06:46:02.185Z,0
2019-04-01T06:47:02.291Z,0
2019-04-01T06:48:01.495Z,0
2019-04-01T06:49:01.827Z,0
2019-04-01T06:50:02.054Z,0
2019-04-01T06:51:02.196Z,0
2019-04-01T06:52:01.443Z,0
2019-04-01T06:53:01.668Z,0
2019-04-01T06:54:01.888Z,0
2019-04-01T06:55:02.303Z,0
2019-04-01T06:56:02.414Z,0
2019-04-01T06:57:01.621Z,0
2019-04-01T06:58:01.898Z,0
2019-04-01T06:59:02.071Z,0
2019-04-01T07:00:04.222Z,0
2019-04-01T07:01:02.022Z,0
2019-04-01T07:02:02.262Z,1
2019-04-01T07:03:01.478Z,0
2019-04-01T07:04:01.642Z,0
2019-04-01T07:05:01.866Z,0
2019-04-01T07:06:02.108Z,0
2019-04-01T07:07:02.311Z,0
2019-04-01T07:08:01.582Z,0
2019-04-01T07:09:01.704Z,0
2019-04-01T07:10:02.124Z,0
2019-04-01T07:11:02.252Z,0
2019-04-01T07:12:01.433Z,0
2019-04-01T07:13:01.756Z,0
2019-04-01T07:14:01.908Z,0
2019-04-01T07:15:02.234Z,0
2019-04-01T07:16:14.843Z,1
2019-04-01T07:17:01.603Z,0
2019-04-01T07:18:01.909Z,0
2019-04-01T07:19:02.057Z,0
2019-04-01T07:20:02.390Z,0
2019-04-01T07:21:01.500Z,0
2019-04-01T07:22:02.446Z,0
2019-04-01T07:23:01.524Z,0
2019-04-01T07:24:01.785Z,0
2019-04-01T07:25:02.168Z,0
2019-04-01T07:26:02.277Z,0
2019-04-01T07:27:01.548Z,0
2019-04-01T07:28:01.740Z,0
2019-04-01T07:29:01.966Z,0
2019-04-01T07:30:02.268Z,0
2019-04-01T07:31:01.432Z,0
2019-04-01T07:32:01.664Z,1
2019-04-01T07:33:01.907Z,0
2019-04-01T07:34:02.133Z,0
2019-04-01T07:35:02.392Z,0
2019-04-01T07:36:01.633Z,0
2019-04-01T07:37:01.816Z,1
2019-04-01T07:38:01.970Z,1
2019-04-01T07:39:02.230Z,0
2019-04-01T07:40:01.476Z,0
2019-04-01T07:41:01.617Z,0
2019-04-01T07:42:01.915Z,0
2019-04-01T07:43:02.066Z,0
2019-04-01T07:44:02.281Z,0
2019-04-01T07:45:01.490Z,0
2019-04-01T07:46:02.061Z,0
2019-04-01T07:47:02.358Z,0
2019-04-01T07:48:01.476Z,0
2019-04-01T07:49:01.765Z,0
2019-04-01T07:50:02.139Z,0
2019-04-01T07:51:02.347Z,0
2019-04-01T07:52:01.558Z,0
2019-04-01T07:53:01.733Z,0
2019-04-01T07:54:01.980Z,0
2019-04-01T07:55:02.341Z,1
2019-04-01T07:56:02.749Z,0
2019-04-01T07:57:01.701Z,0
2019-04-01T07:58:01.905Z,0
2019-04-01T07:59:02.089Z,0
2019-04-01T08:00:04.589Z,0
2019-04-01T08:01:02.402Z,0
2019-04-01T08:02:01.722Z,0
2019-04-01T08:03:01.929Z,0
2019-04-01T08:04:02.239Z,0
2019-04-01T08:05:02.428Z,1
2019-04-01T08:06:01.669Z,0
2019-04-01T08:07:01.887Z,0
2019-04-01T08:08:02.112Z,0
2019-04-01T08:09:02.257Z,0
2019-04-01T08:10:01.575Z,0
2019-04-01T08:11:01.794Z,0
2019-04-01T08:12:02.061Z,0
2019-04-01T08:13:02.208Z,1
2019-04-01T08:14:01.491Z,0
2019-04-01T08:15:01.729Z,0
2019-04-01T08:16:02.015Z,0
2019-04-01T08:17:02.319Z,1
2019-04-01T08:18:01.511Z,0
2019-04-01T08:19:01.830Z,0
2019-04-01T08:20:02.058Z,0
2019-04-01T08:21:02.238Z,0
2019-04-01T08:22:01.463Z,0
2019-04-01T08:23:01.566Z,0
2019-04-01T08:24:01.875Z,0
2019-04-01T08:25:02.195Z,0
2019-04-01T08:26:01.777Z,0
2019-04-01T08:27:01.983Z,0
2019-04-01T08:28:02.172Z,0
2019-04-01T08:29:02.402Z,0
2019-04-01T08:30:01.654Z,1
2019-04-01T08:31:01.934Z,0
2019-04-01T08:32:02.086Z,0
2019-04-01T08:33:02.332Z,0
2019-04-01T08:34:01.615Z,0
2019-04-01T08:35:01.734Z,0
2019-04-01T08:36:02.015Z,0
2019-04-01T08:37:02.231Z,0
2019-04-01T08:38:01.415Z,1
2019-04-01T08:39:01.668Z,0
2019-04-01T08:40:01.932Z,1
2019-04-01T08:41:02.262Z,0
2019-04-01T08:42:01.447Z,0
2019-04-01T08:43:01.685Z,0
2019-04-01T08:44:03.306Z,0
2019-04-01T08:45:02.186Z,0
2019-04-01T08:46:02.367Z,0
2019-04-01T08:47:01.553Z,0
2019-04-01T08:48:01.761Z,0
2019-04-01T08:49:01.927Z,0
2019-04-01T08:50:02.247Z,0
2019-04-01T08:51:01.474Z,1
2019-04-01T08:52:01.693Z,0
2019-04-01T08:53:02.020Z,0
2019-04-01T08:54:02.121Z,0
2019-04-01T08:55:02.366Z,0
2019-04-01T08:56:01.597Z,0
2019-04-01T08:57:01.824Z,0
2019-04-01T08:58:02.062Z,0
2019-04-01T08:59:02.241Z,0
2019-04-01T09:00:06.315Z,1
2019-04-01T09:01:02.042Z,1
2019-04-01T09:02:16.704Z,0
2019-04-01T09:03:01.467Z,0
2019-04-01T09:04:01.680Z,0
2019-04-01T09:05:02.000Z,0
2019-04-01T09:06:02.336Z,0
2019-04-01T09:07:02.371Z,0
2019-04-01T09:08:01.583Z,0
2019-04-01T09:09:01.729Z,0
2019-04-01T09:10:02.019Z,0
2019-04-01T09:11:02.148Z,0
2019-04-01T09:12:02.315Z,0
2019-04-01T09:13:01.475Z,0
2019-04-01T09:14:01.744Z,0
2019-04-01T09:15:02.043Z,0
2019-04-01T09:16:02.352Z,0
2019-04-01T09:17:01.509Z,0
2019-04-01T09:18:01.720Z,0
2019-04-01T09:19:01.984Z,0
2019-04-01T09:20:02.271Z,0
2019-04-01T09:21:01.496Z,0
2019-04-01T09:22:01.733Z,0
2019-04-01T09:23:01.914Z,0
2019-04-01T09:24:02.115Z,0
2019-04-01T09:25:02.488Z,0
2019-04-01T09:26:01.617Z,0
2019-04-01T09:27:01.772Z,0
2019-04-01T09:28:02.004Z,0
2019-04-01T09:29:02.098Z,0
2019-04-01T09:30:02.392Z,1
2019-04-01T09:31:01.600Z,3
2019-04-01T09:32:01.855Z,3
2019-04-01T09:33:02.156Z,3
2019-04-01T09:34:02.299Z,3
2019-04-01T09:35:01.551Z,4
2019-04-01T09:36:01.734Z,5
2019-04-01T09:37:01.939Z,7
2019-04-01T09:38:02.137Z,7
2019-04-01T09:39:02.328Z,8
2019-04-01T09:40:01.665Z,8
2019-04-01T09:41:01.772Z,8
2019-04-01T09:42:02.005Z,9
2019-04-01T09:43:02.291Z,8
2019-04-01T09:44:01.490Z,10
2019-04-01T09:45:01.788Z,6
2019-04-01T09:46:01.978Z,7
2019-04-01T09:47:02.163Z,8
2019-04-01T09:48:01.509Z,7
2019-04-01T09:49:01.780Z,6
2019-04-01T09:50:02.134Z,6
2019-04-01T09:51:02.339Z,6
2019-04-01T09:52:03.848Z,5
2019-04-01T09:53:01.734Z,6
2019-04-01T09:54:01.922Z,6
2019-04-01T09:55:05.868Z,6
2019-04-01T09:56:01.416Z,6
2019-04-01T09:57:16.138Z,5
2019-04-01T09:58:01.837Z,3
2019-04-01T09:59:02.090Z,6
2019-04-01T10:00:03.884Z,5
2019-04-01T10:01:01.626Z,3
2019-04-01T10:02:01.771Z,5
2019-04-01T10:03:02.043Z,5
2019-04-01T10:04:02.255Z,6
2019-04-01T10:05:02.430Z,5
2019-04-01T10:06:01.659Z,5
2019-04-01T10:07:01.826Z,5
2019-04-01T10:08:02.022Z,4
2019-04-01T10:09:02.298Z,5
2019-04-01T10:10:01.510Z,6
2019-04-01T10:11:01.695Z,9
2019-04-01T10:12:01.839Z,8
2019-04-01T10:13:02.033Z,9
2019-04-01T10:14:02.255Z,8
2019-04-01T10:15:01.491Z,8
2019-04-01T10:16:01.622Z,8
2019-04-01T10:17:01.895Z,8
2019-04-01T10:18:02.066Z,8
2019-04-01T10:19:02.314Z,9
2019-04-01T10:20:01.681Z,7
2019-04-01T10:21:01.760Z,8
2019-04-01T10:22:01.960Z,8
2019-04-01T10:23:02.171Z,8
2019-04-01T10:24:01.403Z,8
2019-04-01T10:25:01.714Z,7
2019-04-01T10:26:01.942Z,7
2019-04-01T10:27:02.184Z,7
2019-04-01T10:28:01.422Z,7
2019-04-01T10:29:01.709Z,8
2019-04-01T10:30:01.952Z,7
2019-04-01T10:31:02.097Z,5
2019-04-01T10:32:02.334Z,6
2019-04-01T10:33:02.360Z,6
2019-04-01T10:34:01.720Z,7
2019-04-01T10:35:01.944Z,6
2019-04-01T10:36:02.117Z,6
2019-04-01T10:37:02.398Z,5
2019-04-01T10:38:01.536Z,7
2019-04-01T10:39:01.796Z,6
2019-04-01T10:40:02.055Z,7
2019-04-01T10:41:02.273Z,6
2019-04-01T10:42:01.529Z,3
2019-04-01T10:43:01.684Z,5
2019-04-01T10:44:04.656Z,5
2019-04-01T10:45:02.181Z,6
2019-04-01T10:46:02.396Z,6
2019-04-01T10:47:01.597Z,5
2019-04-01T10:48:01.874Z,5
2019-04-01T10:49:02.123Z,4
2019-04-01T10:50:02.361Z,5
2019-04-01T10:51:01.537Z,5
2019-04-01T10:52:01.787Z,5
2019-04-01T10:53:01.877Z,5
2019-04-01T10:54:02.118Z,6
2019-04-01T10:55:02.338Z,5
2019-04-01T10:56:01.549Z,6
2019-04-01T10:57:01.824Z,4
2019-04-01T10:58:02.026Z,5
2019-04-01T10:59:02.117Z,7
2019-04-01T11:00:07.273Z,4
2019-04-01T11:01:02.095Z,5
2019-04-01T11:02:02.303Z,4
2019-04-01T11:03:01.656Z,4
2019-04-01T11:04:01.789Z,4
2019-04-01T11:05:02.163Z,5
2019-04-01T11:06:02.466Z,5
2019-04-01T11:07:01.477Z,4
2019-04-01T11:08:01.639Z,4
2019-04-01T11:09:01.894Z,5
2019-04-01T11:10:02.202Z,4
2019-04-01T11:11:02.333Z,5
2019-04-01T11:12:01.508Z,5
2019-04-01T11:13:01.664Z,4
2019-04-01T11:14:01.888Z,3
2019-04-01T11:15:02.126Z,3
2019-04-01T11:16:02.409Z,3
2019-04-01T11:17:04.252Z,4
2019-04-01T11:18:02.149Z,4
2019-04-01T11:19:02.290Z,3
2019-04-01T11:20:01.543Z,4
2019-04-01T11:21:01.787Z,4
2019-04-01T11:22:02.175Z,3
2019-04-01T11:23:03.092Z,4
2019-04-01T11:24:02.139Z,4
2019-04-01T11:25:01.838Z,3
2019-04-01T11:26:01.962Z,3
2019-04-01T11:27:02.115Z,4
2019-04-01T11:28:02.380Z,5
2019-04-01T11:29:01.687Z,3
2019-04-01T11:30:01.903Z,3
2019-04-01T11:31:02.174Z,4
2019-04-01T11:32:02.298Z,3
2019-04-01T11:33:01.594Z,4
2019-04-01T11:34:01.834Z,3
2019-04-01T11:35:02.046Z,3
2019-04-01T11:36:02.274Z,4
2019-04-01T11:37:01.410Z,3
2019-04-01T11:38:01.758Z,3
2019-04-01T11:39:01.923Z,3
2019-04-01T11:40:02.096Z,3
2019-04-01T11:41:02.232Z,4
2019-04-01T11:42:01.824Z,4
2019-04-01T11:43:04.767Z,3
2019-04-01T11:44:01.885Z,3
2019-04-01T11:45:05.628Z,4
2019-04-01T11:46:01.505Z,2
2019-04-01T11:47:01.757Z,3
2019-04-01T11:48:01.926Z,3
2019-04-01T11:49:02.230Z,4
2019-04-01T11:50:02.397Z,3
2019-04-01T11:51:01.635Z,3
2019-04-01T11:52:01.868Z,3
2019-04-01T11:53:02.099Z,3
2019-04-01T11:54:02.267Z,3
2019-04-01T11:55:01.657Z,2
2019-04-01T11:56:02.030Z,2
2019-04-01T11:57:02.081Z,2
2019-04-01T11:58:02.295Z,2
2019-04-01T11:59:01.532Z,2
2019-04-01T12:00:04.045Z,3
2019-04-01T12:01:01.952Z,3
2019-04-01T12:02:02.126Z,3
2019-04-01T12:03:02.359Z,3
2019-04-01T12:04:01.587Z,2
2019-04-01T12:05:01.850Z,3
2019-04-01T12:06:02.083Z,2
2019-04-01T12:07:02.346Z,2
2019-04-01T12:08:01.476Z,3
2019-04-01T12:09:01.715Z,2
2019-04-01T12:10:02.015Z,2
2019-04-01T12:11:02.299Z,3
2019-04-01T12:12:01.490Z,2
2019-04-01T12:13:01.708Z,3
2019-04-01T12:14:04.945Z,1
2019-04-01T12:15:02.196Z,2
2019-04-01T12:16:02.429Z,1
2019-04-01T12:17:01.562Z,3
2019-04-01T12:18:01.820Z,1
2019-04-01T12:19:02.112Z,2
2019-04-01T12:20:02.377Z,2
2019-04-01T12:21:01.547Z,2
2019-04-01T12:22:01.743Z,1
2019-04-01T12:23:01.966Z,3
2019-04-01T12:24:02.299Z,3
2019-04-01T12:25:01.576Z,1
2019-04-01T12:26:14.243Z,2
2019-04-01T12:27:01.908Z,2
2019-04-01T12:28:02.176Z,2
2019-04-01T12:29:02.353Z,2
2019-04-01T12:30:01.567Z,3
2019-04-01T12:31:01.778Z,2
2019-04-01T12:32:01.934Z,2
2019-04-01T12:33:02.215Z,2
2019-04-01T12:34:02.379Z,2
2019-04-01T12:35:02.066Z,2
2019-04-01T12:36:02.022Z,3
2019-04-01T12:37:02.126Z,2
2019-04-01T12:38:02.362Z,1
2019-04-01T12:39:01.546Z,2
2019-04-01T12:40:01.865Z,2
2019-04-01T12:41:02.054Z,3
2019-04-01T12:42:02.251Z,2
2019-04-01T12:43:01.443Z,2
2019-04-01T12:44:01.660Z,2
2019-04-01T12:45:02.059Z,2
2019-04-01T12:46:02.172Z,2
2019-04-01T12:47:01.506Z,3
2019-04-01T12:48:01.699Z,1
2019-04-01T12:49:01.998Z,1
2019-04-01T12:50:02.162Z,1
2019-04-01T12:51:01.425Z,2
2019-04-01T12:52:01.668Z,2
2019-04-01T12:53:01.988Z,2
2019-04-01T12:54:02.224Z,2
2019-04-01T12:55:02.427Z,2
2019-04-01T12:56:01.629Z,2
2019-04-01T12:57:01.782Z,2
2019-04-01T12:58:02.053Z,2
2019-04-01T12:59:02.368Z,1
2019-04-01T13:00:05.184Z,2
2019-04-01T13:01:02.224Z,2
2019-04-01T13:02:02.342Z,3
2019-04-01T13:03:01.566Z,3
2019-04-01T13:04:04.175Z,2
2019-04-01T13:05:01.959Z,2
2019-04-01T13:06:02.202Z,3
2019-04-01T13:07:05.030Z,2
2019-04-01T13:08:01.675Z,2
2019-04-01T13:09:01.815Z,3
2019-04-01T13:10:02.080Z,2
2019-04-01T13:11:02.292Z,2
2019-04-01T13:12:01.553Z,3
2019-04-01T13:13:01.766Z,2
2019-04-01T13:14:01.941Z,2
2019-04-01T13:15:02.135Z,3
2019-04-01T13:16:02.378Z,3
2019-04-01T13:17:01.628Z,2
2019-04-01T13:18:01.971Z,2
2019-04-01T13:19:02.116Z,3
2019-04-01T13:20:02.414Z,3
2019-04-01T13:21:01.596Z,3
2019-04-01T13:22:01.841Z,5
2019-04-01T13:23:02.086Z,3
2019-04-01T13:24:02.276Z,3
2019-04-01T13:25:05.231Z,3
2019-04-01T13:26:02.817Z,3
2019-04-01T13:27:02.108Z,3
2019-04-01T13:28:02.295Z,2
2019-04-01T13:29:01.530Z,3
2019-04-01T13:30:01.855Z,1
2019-04-01T13:31:01.967Z,2
2019-04-01T13:32:02.260Z,3
2019-04-01T13:33:01.400Z,3
2019-04-01T13:34:01.656Z,3
2019-04-01T13:35:01.971Z,2
2019-04-01T13:36:02.254Z,2
2019-04-01T13:37:01.474Z,4
2019-04-01T13:38:01.765Z,3
2019-04-01T13:39:04.168Z,2
2019-04-01T13:40:02.990Z,3
2019-04-01T13:41:02.328Z,2
2019-04-01T13:42:01.737Z,2
2019-04-01T13:43:04.579Z,2
2019-04-01T13:44:02.130Z,2
2019-04-01T13:45:02.550Z,2
2019-04-01T13:46:01.630Z,2
2019-04-01T13:47:01.819Z,2
2019-04-01T13:48:01.971Z,3
2019-04-01T13:49:04.339Z,3
2019-04-01T13:50:03.513Z,2
2019-04-01T13:51:01.749Z,2
2019-04-01T13:52:03.784Z,3
2019-04-01T13:53:01.971Z,2
2019-04-01T13:54:08.709Z,2
2019-04-01T13:55:01.414Z,1
2019-04-01T13:56:01.603Z,2
2019-04-01T13:57:01.950Z,3
2019-04-01T13:58:02.067Z,2
2019-04-01T13:59:02.260Z,1
2019-04-01T14:00:04.202Z,2
2019-04-01T14:01:02.131Z,3
2019-04-01T14:02:02.184Z,2
2019-04-01T14:03:01.409Z,3
2019-04-01T14:04:01.734Z,3
2019-04-01T14:05:05.660Z,2
2019-04-01T14:06:02.134Z,1
2019-04-01T14:07:02.311Z,2
2019-04-01T14:08:01.536Z,2
2019-04-01T14:09:01.751Z,2
2019-04-01T14:10:01.585Z,1
2019-04-01T14:11:01.739Z,2
2019-04-01T14:12:01.967Z,2
2019-04-01T14:13:02.138Z,2
2019-04-01T14:14:02.475Z,3
2019-04-01T14:15:01.679Z,3
2019-04-01T14:16:01.856Z,2
2019-04-01T14:17:02.015Z,2
2019-04-01T14:18:02.220Z,2
2019-04-01T14:19:02.472Z,2
2019-04-01T14:20:01.621Z,1
2019-04-01T14:21:15.132Z,2
2019-04-01T14:22:02.098Z,2
2019-04-01T14:23:02.268Z,2
2019-04-01T14:24:01.437Z,0
2019-04-01T14:25:01.683Z,2
2019-04-01T14:26:01.847Z,2
2019-04-01T14:27:02.086Z,2
2019-04-01T14:28:02.286Z,2
2019-04-01T14:29:01.508Z,2
2019-04-01T14:30:01.831Z,3
2019-04-01T14:31:01.992Z,2
2019-04-01T14:32:02.248Z,2
2019-04-01T14:33:03.137Z,2
2019-04-01T14:34:01.590Z,2
2019-04-01T14:35:01.794Z,3
2019-04-01T14:36:02.076Z,1
2019-04-01T14:37:02.171Z,2
2019-04-01T14:38:02.373Z,1
2019-04-01T14:39:01.571Z,2
2019-04-01T14:40:01.842Z,2
2019-04-01T14:41:02.059Z,2
2019-04-01T14:42:02.268Z,1
2019-04-01T14:43:01.507Z,2
2019-04-01T14:44:01.634Z,2
2019-04-01T14:45:01.929Z,2
2019-04-01T14:46:02.242Z,2
2019-04-01T14:47:01.399Z,2